createdAt,value
2022-10-06T00:00:19.875Z,78.96
2022-10-06T00:01:19.902Z,79.05
2022-10-06T00:02:19.896Z,78.65
2022-10-06T00:03:19.810Z,78.45
2022-10-06T00:04:19.806Z,78.75
2022-10-06T00:05:19.830Z,78.55
2022-10-06T00:06:19.826Z,78.85
2022-10-06T00:07:19.855Z,78.96
2022-10-06T00:08:19.812Z,79.05
2022-10-06T00:09:19.783Z,79.05
2022-10-06T00:10:19.817Z,78.51
2022-10-06T00:11:19.781Z,78.55
2022-10-06T00:12:20.763Z,78.81
2022-10-06T00:13:19.778Z,78.61
2022-10-06T00:14:19.747Z,78.31
2022-10-06T00:15:19.752Z,78.01
2022-10-06T00:16:19.807Z,78.41
2022-10-06T00:17:19.763Z,78.61
2022-10-06T00:18:19.724Z,78.41
2022-10-06T00:19:19.745Z,78.41
2022-10-06T00:20:19.697Z,79.02
2022-10-06T00:21:19.726Z,78.75
2022-10-06T00:22:19.679Z,78.81
2022-10-06T00:23:19.699Z,79.05
2022-10-06T00:24:19.678Z,79.86
2022-10-06T00:25:19.679Z,79.86
2022-10-06T00:26:19.687Z,79.66
2022-10-06T00:27:19.654Z,79.36
2022-10-06T00:28:19.694Z,79.56
2022-10-06T00:29:19.642Z,79.66
2022-10-06T00:30:19.668Z,79.46
2022-10-06T00:31:19.967Z,80.16
2022-10-06T00:32:19.646Z,79.66
2022-10-06T00:33:19.616Z,79.46
2022-10-06T00:34:19.610Z,79.96
2022-10-06T00:35:19.594Z,79.56
2022-10-06T00:36:19.595Z,79.46
2022-10-06T00:37:19.591Z,79.56
2022-10-06T00:38:19.595Z,79.22
2022-10-06T00:39:19.562Z,79.22
2022-10-06T00:40:19.585Z,79.42
2022-10-06T00:41:19.559Z,79.25
2022-10-06T00:42:19.577Z,79.22
2022-10-06T00:43:19.542Z,79.56
2022-10-06T00:44:19.536Z,79.66
2022-10-06T00:45:19.544Z,79.76
2022-10-06T00:46:19.629Z,79.86
2022-10-06T00:47:19.525Z,79.66
2022-10-06T00:48:19.541Z,79.76
2022-10-06T00:49:19.501Z,79.96
2022-10-06T00:50:19.510Z,79.96
2022-10-06T00:51:19.490Z,79.86
2022-10-06T00:52:19.497Z,79.25
2022-10-06T00:53:19.475Z,79.16
2022-10-06T00:54:19.469Z,78.71
2022-10-06T00:55:19.474Z,78.85
2022-10-06T00:56:19.457Z,78.65
2022-10-06T00:57:19.521Z,78.85
2022-10-06T00:58:19.492Z,78.01
2022-10-06T00:59:19.449Z,78.11
2022-10-06T01:00:19.485Z,77.81
2022-10-06T01:01:19.480Z,77.57
2022-10-06T01:02:20.518Z,77.81
2022-10-06T01:03:19.409Z,78.21
2022-10-06T01:04:19.430Z,78.51
2022-10-06T01:05:19.429Z,78.01
2022-10-06T01:06:19.437Z,78.31
2022-10-06T01:07:19.387Z,78.11
2022-10-06T01:08:19.413Z,78.55
2022-10-06T01:09:19.426Z,78.55
2022-10-06T01:10:19.401Z,79.46
2022-10-06T01:11:19.360Z,78.81
2022-10-06T01:12:19.368Z,78.31
2022-10-06T01:13:19.345Z,78.65
2022-10-06T01:14:19.384Z,78.31
2022-10-06T01:15:19.342Z,78.41
2022-10-06T01:16:19.417Z,78.55
2022-10-06T01:17:19.308Z,78.51
2022-10-06T01:18:19.304Z,77.70
2022-10-06T01:19:19.310Z,78.21
2022-10-06T01:20:19.295Z,78.21
2022-10-06T01:21:19.327Z,78.61
2022-10-06T01:22:19.283Z,79.05
2022-10-06T01:23:19.294Z,79.25
2022-10-06T01:24:19.263Z,79.86
2022-10-06T01:25:19.262Z,80.26
2022-10-06T01:26:19.259Z,80.06
2022-10-06T01:27:19.243Z,80.26
2022-10-06T01:28:19.286Z,80.57
2022-10-06T01:29:19.227Z,80.06
2022-10-06T01:30:19.247Z,79.76
2022-10-06T01:31:19.310Z,78.15
2022-10-06T01:32:19.207Z,77.08
2022-10-06T01:33:19.219Z,77.34
2022-10-06T01:34:19.194Z,77.04
2022-10-06T01:35:19.181Z,76.14
2022-10-06T01:36:19.195Z,75.93
2022-10-06T01:37:19.183Z,76.14
2022-10-06T01:38:19.176Z,76.14
2022-10-06T01:39:19.167Z,76.23
2022-10-06T01:40:19.177Z,75.53
2022-10-06T01:41:19.164Z,76.07
2022-10-06T01:42:19.166Z,76.14
2022-10-06T01:43:19.144Z,76.64
2022-10-06T01:44:19.135Z,75.96
2022-10-06T01:45:19.138Z,76.14
2022-10-06T01:46:19.230Z,75.93
2022-10-06T01:47:19.125Z,74.89
2022-10-06T01:48:19.107Z,75.33
2022-10-06T01:49:19.114Z,75.63
2022-10-06T01:50:19.091Z,74.93
2022-10-06T01:51:19.111Z,75.76
2022-10-06T01:52:19.108Z,76.03
2022-10-06T01:53:19.077Z,74.22
2022-10-06T01:54:19.100Z,74.55
2022-10-06T01:55:19.075Z,73.95
2022-10-06T01:56:19.052Z,72.74
2022-10-06T01:57:19.059Z,72.85
2022-10-06T01:58:19.036Z,72.20
2022-10-06T01:59:19.097Z,72.61
2022-10-06T02:00:19.012Z,72.20
2022-10-06T02:01:19.095Z,72.54
2022-10-06T02:02:19.027Z,72.34
2022-10-06T02:03:19.029Z,72.31
2022-10-06T02:04:19.074Z,72.51
2022-10-06T02:05:18.992Z,72.24
2022-10-06T02:06:19.044Z,72.74
2022-10-06T02:07:18.971Z,72.14
2022-10-06T02:08:18.995Z,72.74
2022-10-06T02:09:18.971Z,72.24
2022-10-06T02:10:18.968Z,72.24
2022-10-06T02:11:18.951Z,72.24
2022-10-06T02:12:18.948Z,73.05
2022-10-06T02:13:18.963Z,72.47
2022-10-06T02:14:18.952Z,72.38
2022-10-06T02:15:18.929Z,72.74
2022-10-06T02:16:18.973Z,74.29
2022-10-06T02:17:18.928Z,74.29
2022-10-06T02:18:18.917Z,73.99
2022-10-06T02:19:18.907Z,75.40
2022-10-06T02:20:18.900Z,75.03
2022-10-06T02:21:18.888Z,75.74
2022-10-06T02:22:18.906Z,76.04
2022-10-06T02:23:18.935Z,76.95
2022-10-06T02:24:18.880Z,73.85
2022-10-06T02:25:18.861Z,74.36
2022-10-06T02:26:18.860Z,74.16
2022-10-06T02:27:18.835Z,74.40
2022-10-06T02:28:18.915Z,72.58
2022-10-06T02:29:18.847Z,72.21
2022-10-06T02:30:18.832Z,71.30
2022-10-06T02:31:18.904Z,69.38
2022-10-06T02:32:19.783Z,69.28
2022-10-06T02:33:18.810Z,69.21
2022-10-06T02:34:18.814Z,68.71
2022-10-06T02:35:18.807Z,68.51
2022-10-06T02:36:19.315Z,68.51
2022-10-06T02:37:18.780Z,69.31
2022-10-06T02:38:18.775Z,68.27
2022-10-06T02:39:18.758Z,68.30
2022-10-06T02:40:18.775Z,68.51
2022-10-06T02:41:18.759Z,68.23
2022-10-06T02:42:19.288Z,68.03
2022-10-06T02:43:18.752Z,67.72
2022-10-06T02:44:18.752Z,67.43
2022-10-06T02:45:18.747Z,67.52
2022-10-06T02:46:18.780Z,67.52
2022-10-06T02:47:18.721Z,67.43
2022-10-06T02:48:18.719Z,68.03
2022-10-06T02:49:18.723Z,67.63
2022-10-06T02:50:18.739Z,66.92
2022-10-06T02:51:18.726Z,67.02
2022-10-06T02:52:18.713Z,68.23
2022-10-06T02:53:18.686Z,67.55
2022-10-06T02:54:18.693Z,67.83
2022-10-06T02:55:18.665Z,67.32
2022-10-06T02:56:18.697Z,67.12
2022-10-06T02:57:18.682Z,68.13
2022-10-06T02:58:18.665Z,68.03
2022-10-06T02:59:18.689Z,67.93
2022-10-06T03:00:18.638Z,68.87
2022-10-06T03:01:18.710Z,68.67
2022-10-06T03:02:18.790Z,68.67
2022-10-06T03:03:18.656Z,68.67
2022-10-06T03:04:18.620Z,68.06
2022-10-06T03:05:18.637Z,68.84
2022-10-06T03:06:18.610Z,68.37
2022-10-06T03:07:18.609Z,68.57
2022-10-06T03:08:18.606Z,68.47
2022-10-06T03:09:18.588Z,68.67
2022-10-06T03:10:18.577Z,68.57
2022-10-06T03:11:18.613Z,68.37
2022-10-06T03:12:18.608Z,67.96
2022-10-06T03:13:18.573Z,67.46
2022-10-06T03:14:21.907Z,68.26
2022-10-06T03:15:19.552Z,67.96
2022-10-06T03:16:18.603Z,67.99
2022-10-06T03:17:18.573Z,68.26
2022-10-06T03:18:18.541Z,67.55
2022-10-06T03:19:18.529Z,67.35
2022-10-06T03:20:18.518Z,67.35
2022-10-06T03:21:18.532Z,67.35
2022-10-06T03:22:18.520Z,67.25
2022-10-06T03:23:18.505Z,67.05
2022-10-06T03:24:18.491Z,66.95
2022-10-06T03:25:18.526Z,67.15
2022-10-06T03:26:18.511Z,66.85
2022-10-06T03:27:18.488Z,67.55
2022-10-06T03:28:18.530Z,67.66
2022-10-06T03:29:18.467Z,67.76
2022-10-06T03:30:18.458Z,67.25
2022-10-06T03:31:18.473Z,67.46
2022-10-06T03:32:18.474Z,67.25
2022-10-06T03:33:18.447Z,67.43
2022-10-06T03:34:18.455Z,67.35
2022-10-06T03:35:18.438Z,67.35
2022-10-06T03:36:18.448Z,67.55
2022-10-06T03:37:18.450Z,66.85
2022-10-06T03:38:18.426Z,67.22
2022-10-06T03:39:18.395Z,66.61
2022-10-06T03:40:18.404Z,66.52
2022-10-06T03:41:18.399Z,67.02
2022-10-06T03:42:18.380Z,66.64
2022-10-06T03:43:18.541Z,67.35
2022-10-06T03:44:18.384Z,67.25
2022-10-06T03:45:18.383Z,67.55
2022-10-06T03:46:18.426Z,66.95
2022-10-06T03:47:18.375Z,67.05
2022-10-06T03:48:18.360Z,66.61
2022-10-06T03:49:18.351Z,66.72
2022-10-06T03:50:18.343Z,66.92
2022-10-06T03:51:18.416Z,66.58
2022-10-06T03:52:21.250Z,66.52
2022-10-06T03:53:19.328Z,66.58
2022-10-06T03:54:18.334Z,66.78
2022-10-06T03:55:18.321Z,66.61
2022-10-06T03:56:18.298Z,66.75
2022-10-06T03:57:18.306Z,67.05
2022-10-06T03:58:18.283Z,67.43
2022-10-06T03:59:18.283Z,67.02
2022-10-06T04:00:18.294Z,67.35
2022-10-06T04:01:21.097Z,67.35
2022-10-06T04:02:20.324Z,67.43
2022-10-06T04:03:18.261Z,68.06
2022-10-06T04:04:18.247Z,68.26
2022-10-06T04:05:18.271Z,68.33
2022-10-06T04:06:18.257Z,68.26
2022-10-06T04:07:18.254Z,68.16
2022-10-06T04:08:18.219Z,67.96
2022-10-06T04:09:18.233Z,68.43
2022-10-06T04:10:18.236Z,68.13
2022-10-06T04:11:18.225Z,68.33
2022-10-06T04:12:18.204Z,67.83
2022-10-06T04:13:18.200Z,67.83
2022-10-06T04:14:18.197Z,67.93
2022-10-06T04:15:18.196Z,67.83
2022-10-06T04:16:18.221Z,68.74
2022-10-06T04:17:18.192Z,68.57
2022-10-06T04:18:18.160Z,68.47
2022-10-06T04:19:18.160Z,68.77
2022-10-06T04:20:18.152Z,68.87
2022-10-06T04:21:18.145Z,68.67
2022-10-06T04:22:18.160Z,68.57
2022-10-06T04:23:18.181Z,68.37
2022-10-06T04:24:18.119Z,68.26
2022-10-06T04:25:18.125Z,68.26
2022-10-06T04:26:18.150Z,68.47
2022-10-06T04:27:18.124Z,68.87
2022-10-06T04:28:18.157Z,68.90
2022-10-06T04:29:18.102Z,68.97
2022-10-06T04:30:18.133Z,69.81
2022-10-06T04:31:18.184Z,69.01
2022-10-06T04:32:18.105Z,69.51
2022-10-06T04:33:18.074Z,69.51
2022-10-06T04:34:18.062Z,69.61
2022-10-06T04:35:18.058Z,69.61
2022-10-06T04:36:18.072Z,69.34
2022-10-06T04:37:18.058Z,70.08
2022-10-06T04:38:18.133Z,71.40
2022-10-06T04:39:18.039Z,71.40
2022-10-06T04:40:18.047Z,71.40
2022-10-06T04:41:18.050Z,71.50
2022-10-06T04:42:18.035Z,71.33
2022-10-06T04:43:18.024Z,71.53
2022-10-06T04:44:18.047Z,71.33
2022-10-06T04:45:18.002Z,71.33
2022-10-06T04:46:41.455Z,71.33
2022-10-06T04:47:19.993Z,71.33
2022-10-06T04:48:19.010Z,71.53
2022-10-06T04:49:20.302Z,72.48
2022-10-06T04:50:19.020Z,72.48
2022-10-06T04:51:17.968Z,72.28
2022-10-06T04:52:17.957Z,73.09
2022-10-06T04:53:17.980Z,72.99
2022-10-06T04:54:18.002Z,72.38
2022-10-06T04:55:19.412Z,72.92
2022-10-06T04:56:17.921Z,73.33
2022-10-06T04:57:17.973Z,72.72
2022-10-06T04:58:17.989Z,72.61
2022-10-06T04:59:17.948Z,72.89
2022-10-06T05:00:17.912Z,72.21
2022-10-06T05:01:17.938Z,72.61
2022-10-06T05:02:18.011Z,72.82
2022-10-06T05:03:17.914Z,72.72
2022-10-06T05:04:17.876Z,72.96
2022-10-06T05:05:17.959Z,73.46
2022-10-06T05:06:17.879Z,73.16
2022-10-06T05:07:17.887Z,73.26
2022-10-06T05:08:17.923Z,73.26
2022-10-06T05:09:17.870Z,73.77
2022-10-06T05:10:17.851Z,73.36
2022-10-06T05:11:20.329Z,73.16
2022-10-06T05:12:18.854Z,72.78
2022-10-06T05:13:17.828Z,73.39
2022-10-06T05:14:18.840Z,73.80
2022-10-06T05:15:17.844Z,73.50
2022-10-06T05:16:17.853Z,74.71
2022-10-06T05:17:17.804Z,73.90
2022-10-06T05:18:17.835Z,74.85
2022-10-06T05:19:17.778Z,74.85
2022-10-06T05:20:17.870Z,74.44
2022-10-06T05:21:17.769Z,74.99
2022-10-06T05:22:17.805Z,76.04
2022-10-06T05:23:17.774Z,76.55
2022-10-06T05:24:17.797Z,77.06
2022-10-06T05:25:17.774Z,77.20
2022-10-06T05:26:17.758Z,78.66
2022-10-06T05:27:17.769Z,79.81
2022-10-06T05:28:17.820Z,79.68
2022-10-06T05:29:17.731Z,78.86
2022-10-06T05:30:17.717Z,78.66
2022-10-06T05:31:17.747Z,78.01
2022-10-06T05:32:17.745Z,77.81
2022-10-06T05:33:17.689Z,77.50
2022-10-06T05:34:17.670Z,77.09
2022-10-06T05:35:18.682Z,77.06
2022-10-06T05:36:17.693Z,77.60
2022-10-06T05:37:17.745Z,77.81
2022-10-06T05:38:17.662Z,77.91
2022-10-06T05:39:17.651Z,78.01
2022-10-06T05:40:17.644Z,77.40
2022-10-06T05:41:17.664Z,77.20
2022-10-06T05:42:17.659Z,77.40
2022-10-06T05:43:17.627Z,77.20
2022-10-06T05:44:17.615Z,77.20
2022-10-06T05:45:17.647Z,77.40
2022-10-06T05:46:17.780Z,77.91
2022-10-06T05:47:17.618Z,78.05
2022-10-06T05:48:17.612Z,78.59
2022-10-06T05:49:17.597Z,79.41
2022-10-06T05:50:19.504Z,79.44
2022-10-06T05:51:17.573Z,79.64
2022-10-06T05:52:17.680Z,79.81
2022-10-06T05:53:17.550Z,79.54
2022-10-06T05:54:17.582Z,79.85
2022-10-06T05:55:17.558Z,79.44
2022-10-06T05:56:17.555Z,79.75
2022-10-06T05:57:17.533Z,79.75
2022-10-06T05:58:19.302Z,79.03
2022-10-06T05:59:17.535Z,79.24
2022-10-06T06:00:18.544Z,79.44
2022-10-06T06:01:17.604Z,79.58
2022-10-06T06:02:17.649Z,79.54
2022-10-06T06:03:17.522Z,80.40
2022-10-06T06:04:17.492Z,80.74
2022-10-06T06:05:17.499Z,81.35
2022-10-06T06:06:17.474Z,81.25
2022-10-06T06:07:17.486Z,80.94
2022-10-06T06:08:17.514Z,80.43
2022-10-06T06:09:17.518Z,81.70
2022-10-06T06:10:17.448Z,81.56
2022-10-06T06:11:17.490Z,81.49
2022-10-06T06:12:17.445Z,81.53
2022-10-06T06:13:17.434Z,82.75
2022-10-06T06:14:17.427Z,81.90
2022-10-06T06:15:17.414Z,81.70
2022-10-06T06:16:17.457Z,81.59
2022-10-06T06:17:17.426Z,81.59
2022-10-06T06:18:17.403Z,81.35
2022-10-06T06:19:17.377Z,81.35
2022-10-06T06:20:17.366Z,80.50
2022-10-06T06:21:18.394Z,80.23
2022-10-06T06:22:17.395Z,80.54
2022-10-06T06:23:17.395Z,81.15
2022-10-06T06:24:17.361Z,80.94
2022-10-06T06:25:17.350Z,80.88
2022-10-06T06:26:17.374Z,81.15
2022-10-06T06:27:17.355Z,81.31
2022-10-06T06:28:17.448Z,80.50
2022-10-06T06:29:17.323Z,79.64
2022-10-06T06:30:17.315Z,79.14
2022-10-06T06:31:20.321Z,79.61
2022-10-06T06:32:18.303Z,78.80
2022-10-06T06:33:17.294Z,78.59
2022-10-06T06:34:17.306Z,78.45
2022-10-06T06:35:17.308Z,77.64
2022-10-06T06:36:17.279Z,77.29
2022-10-06T06:37:17.294Z,77.20
2022-10-06T06:38:18.258Z,77.09
2022-10-06T06:39:17.258Z,76.86
2022-10-06T06:40:17.250Z,75.60
2022-10-06T06:41:17.245Z,75.49
2022-10-06T06:42:17.247Z,75.16
2022-10-06T06:43:17.244Z,75.09
2022-10-06T06:44:17.226Z,75.60
2022-10-06T06:45:17.245Z,76.61
2022-10-06T06:46:17.322Z,76.21
2022-10-06T06:47:17.221Z,75.05
2022-10-06T06:48:17.214Z,74.92
2022-10-06T06:49:17.210Z,75.02
2022-10-06T06:50:17.194Z,74.98
2022-10-06T06:51:17.199Z,73.87
2022-10-06T06:52:17.203Z,74.38
2022-10-06T06:53:17.175Z,73.57
2022-10-06T06:54:17.150Z,72.61
2022-10-06T06:55:17.162Z,72.82
2022-10-06T06:56:50.143Z,72.55
2022-10-06T06:57:17.122Z,70.18
2022-10-06T06:58:17.130Z,67.63
2022-10-06T06:59:17.166Z,63.45
2022-10-06T07:00:17.135Z,60.98
2022-10-06T07:01:17.146Z,57.26
2022-10-06T07:02:17.199Z,54.55
2022-10-06T07:03:32.795Z,52.64
2022-10-06T07:04:19.087Z,51.52
2022-10-06T07:05:17.090Z,49.65
2022-10-06T07:06:17.066Z,49.70
2022-10-06T07:07:17.090Z,49.03
2022-10-06T07:08:17.068Z,47.59
2022-10-06T07:09:17.828Z,47.14
2022-10-06T07:10:17.052Z,45.89
2022-10-06T07:11:17.044Z,44.87
2022-10-06T07:12:17.031Z,44.35
2022-10-06T07:13:17.504Z,44.55
2022-10-06T07:14:18.060Z,44.01
2022-10-06T07:15:17.088Z,42.29
2022-10-06T07:16:17.061Z,41.47
2022-10-06T07:17:16.993Z,40.98
2022-10-06T07:18:17.037Z,42.46
2022-10-06T07:19:20.092Z,41.79
2022-10-06T07:20:18.815Z,41.38
2022-10-06T07:21:16.976Z,41.30
2022-10-06T07:22:16.963Z,41.61
2022-10-06T07:23:16.976Z,42.46
2022-10-06T07:24:16.965Z,41.14
2022-10-06T07:25:19.449Z,39.91
2022-10-06T07:26:16.976Z,42.15
2022-10-06T07:27:16.925Z,43.70
2022-10-06T07:28:17.036Z,42.58
2022-10-06T07:29:17.115Z,42.65
2022-10-06T07:30:16.935Z,41.60
2022-10-06T07:31:16.953Z,39.46
2022-10-06T07:32:16.901Z,38.33
2022-10-06T07:33:16.912Z,39.11
2022-10-06T07:34:16.882Z,38.28
2022-10-06T07:35:16.945Z,38.35
2022-10-06T07:36:16.891Z,39.81
2022-10-06T07:37:16.866Z,41.95
2022-10-06T07:38:16.890Z,42.71
2022-10-06T07:39:16.879Z,42.94
2022-10-06T07:40:16.879Z,41.44
2022-10-06T07:41:19.821Z,41.25
2022-10-06T07:42:17.848Z,39.12
2022-10-06T07:43:16.925Z,37.70
2022-10-06T07:44:16.820Z,38.51
2022-10-06T07:45:16.876Z,39.24
2022-10-06T07:46:16.898Z,40.90
2022-10-06T07:47:16.819Z,43.30
2022-10-06T07:48:16.807Z,42.55
2022-10-06T07:49:16.815Z,41.93
2022-10-06T07:50:16.807Z,43.28
2022-10-06T07:51:16.915Z,43.82
2022-10-06T07:52:16.766Z,43.50
2022-10-06T07:53:16.753Z,45.79
2022-10-06T07:54:16.754Z,46.81
2022-10-06T07:55:16.782Z,47.18
2022-10-06T07:56:16.756Z,47.06
2022-10-06T07:57:16.783Z,45.92
2022-10-06T07:58:17.719Z,46.80
2022-10-06T07:59:19.312Z,47.38
2022-10-06T08:00:16.806Z,46.56
2022-10-06T08:01:16.775Z,46.58
2022-10-06T08:02:16.735Z,46.44
2022-10-06T08:03:17.007Z,45.37
2022-10-06T08:04:16.727Z,46.46
2022-10-06T08:05:16.675Z,47.48
2022-10-06T08:06:16.674Z,47.20
2022-10-06T08:07:16.658Z,47.22
2022-10-06T08:08:16.870Z,47.20
2022-10-06T08:09:16.675Z,47.10
2022-10-06T08:10:16.644Z,47.63
2022-10-06T08:11:16.656Z,47.85
2022-10-06T08:12:16.620Z,46.98
2022-10-06T08:13:16.633Z,46.26
2022-10-06T08:14:16.609Z,44.72
2022-10-06T08:15:16.905Z,45.12
2022-10-06T08:16:16.635Z,44.72
2022-10-06T08:17:16.589Z,45.34
2022-10-06T08:18:33.779Z,44.28
2022-10-06T08:19:18.599Z,44.40
2022-10-06T08:20:16.646Z,42.83
2022-10-06T08:21:16.612Z,44.66
2022-10-06T08:22:16.601Z,44.58
2022-10-06T08:23:16.702Z,43.90
2022-10-06T08:24:16.550Z,42.67
2022-10-06T08:25:16.981Z,43.90
2022-10-06T08:26:16.565Z,44.17
2022-10-06T08:27:16.518Z,44.48
2022-10-06T08:28:16.630Z,43.30
2022-10-06T08:29:16.582Z,42.72
2022-10-06T08:30:16.518Z,41.31
2022-10-06T08:31:16.568Z,42.79
2022-10-06T08:32:16.513Z,42.79
2022-10-06T08:33:19.051Z,42.37
2022-10-06T08:34:16.477Z,43.03
2022-10-06T08:35:16.514Z,42.94
2022-10-06T08:36:16.471Z,41.34
2022-10-06T08:37:20.113Z,42.35
2022-10-06T08:38:17.478Z,41.12
2022-10-06T08:39:16.465Z,39.98
2022-10-06T08:40:16.472Z,39.23
2022-10-06T08:41:16.577Z,38.23
2022-10-06T08:42:16.440Z,38.70
2022-10-06T08:43:16.443Z,36.69
2022-10-06T08:44:16.469Z,37.20
2022-10-06T08:45:16.476Z,38.07
2022-10-06T08:46:18.816Z,38.90
2022-10-06T08:47:16.556Z,39.51
2022-10-06T08:48:16.408Z,41.31
2022-10-06T08:49:16.395Z,39.63
2022-10-06T08:50:16.415Z,39.17
2022-10-06T08:51:16.451Z,37.85
2022-10-06T08:52:16.382Z,37.73
2022-10-06T08:53:16.485Z,37.81
2022-10-06T08:54:16.438Z,38.28
2022-10-06T08:55:16.361Z,39.03
2022-10-06T08:56:16.348Z,40.68
2022-10-06T08:57:16.358Z,42.67
2022-10-06T08:58:16.335Z,43.69
2022-10-06T08:59:16.396Z,42.59
2022-10-06T09:00:19.622Z,43.35
2022-10-06T09:01:18.355Z,47.75
2022-10-06T09:02:16.393Z,47.45
2022-10-06T09:03:16.328Z,46.66
2022-10-06T09:04:16.428Z,44.07
2022-10-06T09:05:16.356Z,43.75
2022-10-06T09:06:16.289Z,43.63
2022-10-06T09:07:16.347Z,42.40
2022-10-06T09:08:16.375Z,42.19
2022-10-06T09:09:16.266Z,43.71
2022-10-06T09:10:16.303Z,41.20
2022-10-06T09:11:16.267Z,38.93
2022-10-06T09:12:16.291Z,37.45
2022-10-06T09:13:20.969Z,36.24
2022-10-06T09:14:18.259Z,37.32
2022-10-06T09:15:16.250Z,38.06
2022-10-06T09:16:16.310Z,37.09
2022-10-06T09:17:16.238Z,37.21
2022-10-06T09:18:16.519Z,38.16
2022-10-06T09:19:16.459Z,38.85
2022-10-06T09:20:16.221Z,39.15
2022-10-06T09:21:16.328Z,38.84
2022-10-06T09:22:16.240Z,39.42
2022-10-06T09:23:16.216Z,39.06
2022-10-06T09:24:16.224Z,40.81
2022-10-06T09:25:16.185Z,41.17
2022-10-06T09:26:16.169Z,41.55
2022-10-06T09:27:16.180Z,43.76
2022-10-06T09:28:16.250Z,44.28
2022-10-06T09:29:16.152Z,44.88
2022-10-06T09:30:16.169Z,45.38
2022-10-06T09:31:16.234Z,44.09
2022-10-06T09:32:16.152Z,42.81
2022-10-06T09:33:16.147Z,41.69
2022-10-06T09:34:16.144Z,41.14
2022-10-06T09:35:16.111Z,39.32
2022-10-06T09:36:16.108Z,38.59
2022-10-06T09:37:16.155Z,40.16
2022-10-06T09:38:16.099Z,40.10
2022-10-06T09:39:16.111Z,38.07
2022-10-06T09:40:16.116Z,38.73
2022-10-06T09:41:16.097Z,37.59
2022-10-06T09:42:16.090Z,35.95
2022-10-06T09:43:16.078Z,35.04
2022-10-06T09:44:16.070Z,34.86
2022-10-06T09:45:16.160Z,34.84
2022-10-06T09:46:16.077Z,35.47
2022-10-06T09:47:16.046Z,35.16
2022-10-06T09:48:16.036Z,36.41
2022-10-06T09:49:16.050Z,35.87
2022-10-06T09:50:16.065Z,39.00
2022-10-06T09:51:16.037Z,40.36
2022-10-06T09:52:16.008Z,37.04
2022-10-06T09:53:16.040Z,37.32
2022-10-06T09:54:16.000Z,36.40
2022-10-06T09:55:16.008Z,34.06
2022-10-06T09:56:16.000Z,34.66
2022-10-06T09:57:15.977Z,34.59
2022-10-06T09:58:15.979Z,34.73
2022-10-06T09:59:15.984Z,34.17
2022-10-06T10:00:16.055Z,32.96
2022-10-06T10:01:16.076Z,32.03
2022-10-06T10:02:15.960Z,31.96
2022-10-06T10:03:16.068Z,32.14
2022-10-06T10:04:20.686Z,32.27
2022-10-06T10:05:16.983Z,31.90
2022-10-06T10:06:15.956Z,34.59
2022-10-06T10:07:15.930Z,34.63
2022-10-06T10:08:15.955Z,33.49
2022-10-06T10:09:17.850Z,32.17
2022-10-06T10:10:15.959Z,31.87
2022-10-06T10:11:15.920Z,34.05
2022-10-06T10:12:15.931Z,33.72
2022-10-06T10:13:15.952Z,35.21
2022-10-06T10:14:15.935Z,35.10
2022-10-06T10:15:15.896Z,33.75
2022-10-06T10:16:15.953Z,32.78
2022-10-06T10:17:15.917Z,32.09
2022-10-06T10:18:15.918Z,36.95
2022-10-06T10:19:15.883Z,36.22
2022-10-06T10:20:15.894Z,38.92
2022-10-06T10:21:15.870Z,38.20
2022-10-06T10:22:15.903Z,40.75
2022-10-06T10:23:15.870Z,38.90
2022-10-06T10:24:15.854Z,37.70
2022-10-06T10:25:15.838Z,37.51
2022-10-06T10:26:15.838Z,36.35
2022-10-06T10:27:15.844Z,35.03
2022-10-06T10:28:15.912Z,34.78
2022-10-06T10:29:15.883Z,33.19
2022-10-06T10:30:15.830Z,34.38
2022-10-06T10:31:15.852Z,33.31
2022-10-06T10:32:15.803Z,35.04
2022-10-06T10:33:15.876Z,33.26
2022-10-06T10:34:25.221Z,32.32
2022-10-06T10:35:17.806Z,32.21
2022-10-06T10:36:15.801Z,32.95
2022-10-06T10:37:15.791Z,32.81
2022-10-06T10:38:15.830Z,31.63
2022-10-06T10:39:15.789Z,32.04
2022-10-06T10:40:15.782Z,30.21
2022-10-06T10:41:16.376Z,29.50
2022-10-06T10:42:15.764Z,32.70
2022-10-06T10:43:15.775Z,37.10
2022-10-06T10:44:15.747Z,35.54
2022-10-06T10:45:15.786Z,37.04
2022-10-06T10:46:15.776Z,38.09
2022-10-06T10:47:15.778Z,36.28
2022-10-06T10:48:15.737Z,34.59
2022-10-06T10:49:15.756Z,35.49
2022-10-06T10:50:15.776Z,34.92
2022-10-06T10:51:16.380Z,35.55
2022-10-06T10:52:15.704Z,35.58
2022-10-06T10:53:15.749Z,34.28
2022-10-06T10:54:15.720Z,35.94
2022-10-06T10:55:15.692Z,34.23
2022-10-06T10:56:15.744Z,35.95
2022-10-06T10:57:15.725Z,36.96
2022-10-06T10:58:16.348Z,36.21
2022-10-06T10:59:15.684Z,39.70
2022-10-06T11:00:15.669Z,41.67
2022-10-06T11:01:15.803Z,40.23
2022-10-06T11:02:15.701Z,38.67
2022-10-06T11:03:15.661Z,35.19
2022-10-06T11:04:15.660Z,35.47
2022-10-06T11:05:16.664Z,35.49
2022-10-06T11:06:15.680Z,34.58
2022-10-06T11:07:15.653Z,32.82
2022-10-06T11:08:15.681Z,34.27
2022-10-06T11:09:15.664Z,34.33
2022-10-06T11:10:15.752Z,33.42
2022-10-06T11:11:15.685Z,33.33
2022-10-06T11:12:15.637Z,33.33
2022-10-06T11:13:15.645Z,34.81
2022-10-06T11:14:15.710Z,33.06
2022-10-06T11:15:15.649Z,33.37
2022-10-06T11:16:15.638Z,32.98
2022-10-06T11:17:15.600Z,31.93
2022-10-06T11:18:19.455Z,30.89
2022-10-06T11:19:16.653Z,30.52
2022-10-06T11:20:15.596Z,32.75
2022-10-06T11:21:15.591Z,32.39
2022-10-06T11:22:15.572Z,33.42
2022-10-06T11:23:15.572Z,33.97
2022-10-06T11:24:15.609Z,33.14
2022-10-06T11:25:15.615Z,32.01
2022-10-06T11:26:15.524Z,31.59
2022-10-06T11:27:15.533Z,31.19
2022-10-06T11:28:15.563Z,30.26
2022-10-06T11:29:15.508Z,29.21
2022-10-06T11:30:15.497Z,28.86
2022-10-06T11:31:20.193Z,27.59
2022-10-06T11:32:17.521Z,29.02
2022-10-06T11:33:15.488Z,29.02
2022-10-06T11:34:15.464Z,28.09
2022-10-06T11:35:15.465Z,27.80
2022-10-06T11:36:15.508Z,28.29
2022-10-06T11:37:16.404Z,28.70
2022-10-06T11:38:15.484Z,30.09
2022-10-06T11:39:15.484Z,31.07
2022-10-06T11:40:16.380Z,30.26
2022-10-06T11:41:15.456Z,30.06
2022-10-06T11:42:15.469Z,30.73
2022-10-06T11:43:15.499Z,29.23
2022-10-06T11:44:15.449Z,28.89
2022-10-06T11:45:15.430Z,29.10
2022-10-06T11:46:15.484Z,28.85
2022-10-06T11:47:15.474Z,31.76
2022-10-06T11:48:15.385Z,32.93
2022-10-06T11:49:15.403Z,32.52
2022-10-06T11:50:15.392Z,31.56
2022-10-06T11:51:16.396Z,30.33
2022-10-06T11:52:15.370Z,31.82
2022-10-06T11:53:15.360Z,30.58
2022-10-06T11:54:15.372Z,30.48
2022-10-06T11:55:15.371Z,29.03
2022-10-06T11:56:15.369Z,28.66
2022-10-06T11:57:15.349Z,30.30
2022-10-06T11:58:41.887Z,31.41
2022-10-06T11:59:17.352Z,30.85
2022-10-06T12:00:15.309Z,30.57
2022-10-06T12:01:15.312Z,32.28
2022-10-06T12:02:15.497Z,32.10
2022-10-06T12:03:15.396Z,32.60
2022-10-06T12:04:15.305Z,31.69
2022-10-06T12:05:49.617Z,30.87
2022-10-06T12:06:17.296Z,29.86
2022-10-06T12:07:15.293Z,30.73
2022-10-06T12:08:15.327Z,29.39
2022-10-06T12:09:15.916Z,28.17
2022-10-06T12:10:15.258Z,27.94
2022-10-06T12:11:15.279Z,28.34
2022-10-06T12:12:15.267Z,28.77
2022-10-06T12:13:51.018Z,27.96
2022-10-06T12:17:05.576Z,29.55
2022-10-06T12:17:08.508Z,31.26
2022-10-06T12:17:19.747Z,30.51
2022-10-06T12:18:16.471Z,30.21
2022-10-06T12:19:15.261Z,30.11
2022-10-06T12:20:15.214Z,30.61
2022-10-06T12:21:15.199Z,30.19
2022-10-06T12:22:15.205Z,28.88
2022-10-06T12:23:15.233Z,29.14
2022-10-06T12:24:15.293Z,28.59
2022-10-06T12:25:15.178Z,27.39
2022-10-06T12:26:16.174Z,27.80
2022-10-06T12:27:15.188Z,29.09
2022-10-06T12:28:15.256Z,31.77
2022-10-06T12:29:15.152Z,31.74
2022-10-06T12:30:16.188Z,30.21
2022-10-06T12:31:18.313Z,30.11
2022-10-06T12:32:16.121Z,30.58
2022-10-06T12:33:15.144Z,28.88
2022-10-06T12:34:15.102Z,28.36
2022-10-06T12:35:15.121Z,27.36
2022-10-06T12:36:15.325Z,29.62
2022-10-06T12:37:15.142Z,29.43
2022-10-06T12:38:15.135Z,28.50
2022-10-06T12:39:15.077Z,27.67
2022-10-06T12:40:15.126Z,29.00
2022-10-06T12:41:15.085Z,28.66
2022-10-06T12:42:15.122Z,27.95
2022-10-06T12:43:15.051Z,29.51
2022-10-06T12:44:15.053Z,30.57
2022-10-06T12:45:15.035Z,29.96
2022-10-06T12:46:15.082Z,30.94
2022-10-06T12:47:15.033Z,30.73
2022-10-06T12:48:16.262Z,30.13
2022-10-06T12:49:15.014Z,29.21
2022-10-06T12:50:14.989Z,29.72
2022-10-06T12:51:15.006Z,28.77
2022-10-06T12:52:15.029Z,28.47
2022-10-06T12:53:15.017Z,29.43